createdAt,value
2023-05-06T00:05:05.358Z,0.43
2023-05-06T00:10:31.973Z,0.50
2023-05-06T00:21:55.369Z,0.50
2023-05-06T00:27:41.160Z,0.40
2023-05-06T00:38:30.043Z,0.43
2023-05-06T00:49:34.190Z,0.40
2023-05-06T00:55:06.010Z,0.40
2023-05-06T01:00:44.874Z,0.60
2023-05-06T01:06:24.920Z,0.33
2023-05-06T01:12:34.758Z,0.50
2023-05-06T01:18:31.903Z,0.60
2023-05-06T01:24:17.825Z,0.50
2023-05-06T01:29:53.138Z,0.53
2023-05-06T01:41:26.025Z,0.40
2023-05-06T01:46:54.099Z,0.60
2023-05-06T01:52:30.433Z,0.40
2023-05-06T01:58:15.171Z,0.30
2023-05-06T02:03:44.849Z,0.50
2023-05-06T02:09:16.849Z,0.60
2023-05-06T02:15:06.931Z,0.40
2023-05-06T02:20:40.101Z,0.33
2023-05-06T02:26:06.217Z,0.40
2023-05-06T02:32:12.192Z,0.50
2023-05-06T02:37:58.610Z,0.50
2023-05-06T02:43:42.361Z,0.50
2023-05-06T02:49:25.216Z,0.50
2023-05-06T02:54:59.319Z,0.57
2023-05-06T03:00:29.883Z,0.60
2023-05-06T03:06:00.257Z,0.60
2023-05-06T03:11:55.972Z,0.47
2023-05-06T03:17:15.145Z,0.37
2023-05-06T03:22:40.842Z,0.60
2023-05-06T03:27:44.548Z,0.40
2023-05-06T03:33:06.918Z,0.63
2023-05-06T03:38:24.639Z,0.50
2023-05-06T03:43:45.858Z,0.57
2023-05-06T03:49:12.616Z,0.70
2023-05-06T03:54:28.353Z,0.60
2023-05-06T04:06:17.244Z,0.50
2023-05-06T04:11:29.144Z,0.60
2023-05-06T04:16:44.921Z,0.80
2023-05-06T04:21:51.882Z,0.70
2023-05-06T04:27:12.327Z,0.50
2023-05-06T04:32:21.760Z,0.70
2023-05-06T04:37:25.590Z,0.50
2023-05-06T04:42:42.677Z,0.40
2023-05-06T04:47:57.265Z,0.50
2023-05-06T04:53:04.915Z,0.77
2023-05-06T04:58:20.324Z,0.53
2023-05-06T05:03:25.621Z,0.70
2023-05-06T05:08:37.332Z,0.60
2023-05-06T05:13:43.209Z,0.50
2023-05-06T05:18:48.109Z,0.63
2023-05-06T05:23:58.823Z,0.80
2023-05-06T05:29:12.681Z,0.77
2023-05-06T05:34:22.011Z,0.70
2023-05-06T05:39:29.643Z,0.73
2023-05-06T05:44:43.661Z,0.70
2023-05-06T05:50:04.029Z,0.80
2023-05-06T05:55:26.892Z,0.87
2023-05-06T06:00:36.414Z,1.40
2023-05-06T06:05:59.870Z,1.57
2023-05-06T06:16:47.609Z,1.63
2023-05-06T06:22:00.632Z,1.47
2023-05-06T06:27:10.655Z,1.20
2023-05-06T06:32:20.096Z,1.20
2023-05-06T06:44:48.206Z,1.10
2023-05-06T06:50:03.841Z,1.05
2023-05-06T06:55:18.781Z,1.40
2023-05-06T07:00:37.132Z,1.50
2023-05-06T07:11:45.629Z,1.45
2023-05-06T07:17:01.705Z,1.20
2023-05-06T07:22:46.333Z,0.82
2023-05-06T07:46:36.562Z,0.98
2023-05-06T08:02:58.675Z,1.30
2023-05-06T08:09:22.778Z,1.23
2023-05-06T08:15:25.331Z,1.80
2023-05-06T08:52:59.786Z,1.10
2023-05-06T12:07:42.268Z,0.50
2023-05-06T12:13:57.711Z,0.60
2023-05-06T12:20:10.737Z,0.50
2023-05-06T12:26:38.529Z,0.60
2023-05-06T12:51:42.233Z,0.63
2023-05-06T12:57:27.715Z,0.65
2023-05-06T13:20:45.684Z,0.60
2023-05-06T13:50:44.141Z,1.00
2023-05-06T14:03:00.618Z,0.80
2023-05-06T14:08:42.439Z,0.80
2023-05-06T14:14:30.820Z,0.70
2023-05-06T14:20:30.903Z,0.73
2023-05-06T14:26:12.388Z,0.77
2023-05-06T16:51:44.803Z,1.13
2023-05-06T17:04:45.468Z,0.90
2023-05-06T17:40:28.043Z,0.22
2023-05-06T17:46:25.821Z,0.47
2023-05-06T17:58:47.715Z,0.75
2023-05-06T18:04:24.744Z,0.70
2023-05-06T18:10:22.745Z,0.60
2023-05-06T18:16:04.315Z,0.60
2023-05-06T18:22:03.592Z,0.60
2023-05-06T18:27:40.319Z,0.65
2023-05-06T18:33:44.785Z,0.70
2023-05-06T18:39:32.198Z,0.50
2023-05-06T18:50:58.338Z,0.75
2023-05-06T18:56:35.927Z,0.70
2023-05-06T19:24:25.682Z,0.98
2023-05-06T19:30:44.346Z,0.68
2023-05-06T19:37:02.576Z,0.75
2023-05-06T20:34:15.700Z,0.93
2023-05-06T20:39:50.149Z,0.85
2023-05-06T20:45:26.796Z,0.80
2023-05-06T20:51:00.678Z,0.70
2023-05-06T21:02:25.801Z,0.60
2023-05-06T21:19:29.864Z,0.40
2023-05-06T21:37:21.016Z,0.38
2023-05-06T21:48:28.970Z,0.30
2023-05-06T21:54:26.383Z,0.60
2023-05-06T22:00:31.969Z,0.70
2023-05-06T22:06:35.716Z,0.60
2023-05-06T22:17:58.498Z,0.90
2023-05-06T22:30:06.916Z,0.80
2023-05-06T23:06:00.626Z,0.60
2023-05-06T23:18:25.607Z,0.60
2023-05-06T23:55:14.599Z,0.60
